Time;durP1;ratioP1;P1;durP2;ratioP2;P2;SDS_P1;SDS_P2;PMS_P1;PMS_P2;Temp;Humidity;BMP_temperature;BMP_pressure;BME280_temperature;BME280_humidity;BME280_pressure;Samples;Min_cycle;Max_cycle;Signal;HPM_P1;HPM_P2
2023/05/15 00:01:55;;;;;;;;;73.25;66.25;;;;;-149.00;100.00;66333.84;5102908;27;45612;-72
2023/05/15 00:04:21;;;;;;;;;73.75;65.75;;;;;-149.00;100.00;66333.84;5103081;27;45392;-71
2023/05/15 00:06:46;;;;;;;;;64.25;51.00;;;;;-149.00;100.00;66333.84;5102851;27;45342;-71
2023/05/15 00:09:12;;;;;;;;;69.25;56.25;;;;;-149.00;100.00;66333.84;5102907;27;45448;-72
2023/05/15 00:11:37;;;;;;;;;69.50;60.50;;;;;-149.00;100.00;66333.84;5084480;27;48431;-71
2023/05/15 00:14:02;;;;;;;;;69.50;57.75;;;;;-149.00;100.00;66333.84;5102585;27;45361;-71
2023/05/15 00:16:28;;;;;;;;;70.50;58.00;;;;;-149.00;100.00;66333.84;5103034;27;45993;-72
2023/05/15 00:18:53;;;;;;;;;70.75;60.75;;;;;-149.00;100.00;66333.84;5102545;27;45825;-71
2023/05/15 00:21:18;;;;;;;;;68.00;55.75;;;;;-149.00;100.00;66333.84;5083720;27;54709;-71
2023/05/15 00:23:43;;;;;;;;;69.50;58.50;;;;;-149.00;100.00;66333.84;5083634;27;55020;-71
2023/05/15 00:26:09;;;;;;;;;61.25;49.50;;;;;-149.00;100.00;66333.84;5102759;27;45381;-71
2023/05/15 00:28:34;;;;;;;;;67.00;53.00;;;;;-149.00;100.00;66333.84;5102365;27;45338;-71
2023/05/15 00:30:59;;;;;;;;;69.50;55.50;;;;;-149.00;100.00;66333.84;5102391;27;45297;-71
2023/05/15 00:33:25;;;;;;;;;67.50;51.75;;;;;-149.00;100.00;66333.84;5102135;27;54735;-72
2023/05/15 00:35:50;;;;;;;;;60.75;49.25;;;;;-149.00;100.00;66333.84;5083662;27;49004;-71
2023/05/15 00:38:15;;;;;;;;;64.00;51.00;;;;;-149.00;100.00;66333.84;5102247;27;45314;-72
2023/05/15 00:40:43;;;;;;;;;60.25;48.00;;;;;-149.00;100.00;66333.84;5083702;27;48933;-71
2023/05/15 00:43:10;;;;;;;;;57.50;46.25;;;;;-149.00;100.00;66333.84;5102343;27;45250;-71
2023/05/15 00:45:38;;;;;;;;;33.00;29.75;;;;;-149.00;100.00;66333.84;5102166;27;45271;-72
2023/05/15 00:48:06;;;;;;;;;53.00;43.75;;;;;-149.00;100.00;66333.84;5102181;27;45252;-72
2023/05/15 00:50:32;;;;;;;;;59.75;48.75;;;;;-149.00;100.00;66333.84;5102010;27;45277;-73
2023/05/15 00:52:59;;;;;;;;;54.25;43.75;;;;;-149.00;100.00;66333.84;5101087;27;45225;-72
2023/05/15 00:55:25;;;;;;;;;57.00;46.25;;;;;-149.00;100.00;66333.84;5102025;27;45296;-72
2023/05/15 00:57:52;;;;;;;;;55.50;45.50;;;;;-149.00;100.00;66333.84;5101875;27;45502;-71
2023/05/15 01:00:19;;;;;;;;;53.75;44.00;;;;;-149.00;100.00;66333.84;5101772;27;46366;-72
2023/05/15 01:02:45;;;;;;;;;55.25;44.75;;;;;-149.00;100.00;66333.84;5101878;27;45345;-72
2023/05/15 01:05:10;;;;;;;;;55.25;45.25;;;;;-149.00;100.00;66333.84;5102155;27;45336;-72
2023/05/15 01:07:49;;;;;;;;;50.25;41.00;;;;;-149.00;100.00;66333.84;5083526;27;46059;-72
2023/05/15 01:10:16;;;;;;;;;54.50;44.00;;;;;-149.00;100.00;66333.84;5101582;27;46067;-71
2023/05/15 01:12:44;;;;;;;;;51.50;43.50;;;;;-149.00;100.00;66333.84;5101713;27;45420;-72
2023/05/15 01:15:10;;;;;;;;;50.75;41.50;;;;;-149.00;100.00;66333.84;5101805;27;45279;-72
2023/05/15 01:17:35;;;;;;;;;53.50;44.25;;;;;-149.00;100.00;66333.84;5101745;27;45353;-72
2023/05/15 01:20:06;;;;;;;;;52.00;43.00;;;;;-149.00;100.00;66333.84;5101022;27;57626;-72
2023/05/15 01:22:54;;;;;;;;;49.25;39.75;;;;;-149.00;100.00;66333.84;5101717;27;45328;-72
2023/05/15 01:25:31;;;;;;;;;52.50;44.00;;;;;-149.00;100.00;66333.84;5101807;27;45380;-72
2023/05/15 01:28:07;;;;;;;;;50.00;41.00;;;;;-149.00;100.00;66333.84;5101555;27;45587;-72
2023/05/15 01:30:37;;;;;;;;;53.50;41.75;;;;;-149.00;100.00;66333.84;5101180;27;45249;-72
2023/05/15 01:33:07;;;;;;;;;48.25;40.25;;;;;-149.00;100.00;66333.84;5082866;27;45445;-72
2023/05/15 01:35:32;;;;;;;;;52.25;42.75;;;;;-149.00;100.00;66333.84;5101432;27;45211;-72
2023/05/15 01:38:06;;;;;;;;;52.75;43.75;;;;;-149.00;100.00;66333.84;5101362;27;45247;-72
2023/05/15 01:40:31;;;;;;;;;51.50;41.00;;;;;-149.00;100.00;66333.84;5082681;27;47376;-72
2023/05/15 01:43:02;;;;;;;;;53.25;44.00;;;;;-149.00;100.00;66333.84;5101285;27;45464;-72
2023/05/15 01:45:30;;;;;;;;;52.00;42.50;;;;;-149.00;100.00;66333.84;5101397;27;45328;-72
2023/05/15 01:47:59;;;;;;;;;48.00;40.75;;;;;-149.00;100.00;66333.84;5101395;27;45484;-72
2023/05/15 01:50:26;;;;;;;;;50.25;40.75;;;;;-149.00;100.00;66333.84;5099847;27;45316;-72
2023/05/15 01:52:55;;;;;;;;;46.50;38.25;;;;;-149.00;100.00;66333.84;5080758;28;45489;-72
2023/05/15 01:55:24;;;;;;;;;47.50;39.50;;;;;-149.00;100.00;66333.84;5080729;28;45264;-72
2023/05/15 01:57:50;;;;;;;;;51.00;41.25;;;;;-149.00;100.00;66333.84;5080667;28;45381;-71
2023/05/15 02:00:17;;;;;;;;;51.50;42.75;;;;;-149.00;100.00;66333.84;5078903;28;47614;-72
2023/05/15 02:02:44;;;;;;;;;53.75;43.50;;;;;-149.00;100.00;66333.84;5080483;28;45345;-72
2023/05/15 02:05:11;;;;;;;;;54.25;44.50;;;;;-149.00;100.00;66333.84;5080467;28;45334;-72
2023/05/15 02:07:37;;;;;;;;;48.25;40.25;;;;;-149.00;100.00;66333.84;5080400;28;45241;-72
2023/05/15 02:10:03;;;;;;;;;54.25;43.75;;;;;-149.00;100.00;66333.84;5080437;28;46122;-72
2023/05/15 02:12:30;;;;;;;;;50.00;41.75;;;;;-149.00;100.00;66333.84;5080392;28;45357;-71
2023/05/15 02:14:58;;;;;;;;;50.00;41.00;;;;;-149.00;100.00;66333.84;5080399;28;45338;-71
2023/05/15 02:17:23;;;;;;;;;50.25;41.75;;;;;-149.00;100.00;66333.84;5080244;28;45331;-72
2023/05/15 02:19:49;;;;;;;;;47.75;39.50;;;;;-149.00;100.00;66333.84;5080140;28;45384;-72
2023/05/15 02:22:14;;;;;;;;;53.25;43.25;;;;;-149.00;100.00;66333.84;5061918;28;45403;-71
2023/05/15 02:24:40;;;;;;;;;50.75;41.25;;;;;-149.00;100.00;66333.84;5080308;28;45295;-72
2023/05/15 02:27:11;;;;;;;;;53.50;44.50;;;;;-149.00;100.00;66333.84;5080272;28;45263;-72
2023/05/15 02:29:58;;;;;;;;;54.25;44.25;;;;;-149.00;100.00;66333.84;5090969;27;45401;-72
2023/05/15 02:32:43;;;;;;;;;52.50;43.25;;;;;-149.00;100.00;66333.84;5100524;27;45322;-71
2023/05/15 02:35:21;;;;;;;;;51.75;41.25;;;;;-149.00;100.00;66333.84;5082067;27;45347;-72
2023/05/15 02:37:49;;;;;;;;;54.25;45.00;;;;;-149.00;100.00;66333.84;5100555;27;45179;-72
2023/05/15 02:40:15;;;;;;;;;53.50;43.50;;;;;-149.00;100.00;66333.84;5100124;27;45396;-71
2023/05/15 02:42:44;;;;;;;;;52.00;43.00;;;;;-149.00;100.00;66333.84;5100357;27;45471;-71
2023/05/15 02:45:11;;;;;;;;;56.00;44.00;;;;;-149.00;100.00;66333.84;5100420;27;45318;-71
2023/05/15 02:47:38;;;;;;;;;52.00;42.00;;;;;-149.00;100.00;66333.84;5100388;27;45235;-72
2023/05/15 02:50:04;;;;;;;;;57.00;47.00;;;;;-149.00;100.00;66333.84;5100249;27;45357;-72
2023/05/15 02:52:31;;;;;;;;;50.75;42.00;;;;;-149.00;100.00;66333.84;5100071;27;45256;-71
2023/05/15 02:54:57;;;;;;;;;52.00;43.00;;;;;-149.00;100.00;66333.84;5100343;27;45409;-72
2023/05/15 02:57:22;;;;;;;;;53.75;44.00;;;;;-149.00;100.00;66333.84;5081376;27;53532;-72
2023/05/15 02:59:47;;;;;;;;;56.75;45.50;;;;;-149.00;100.00;66333.84;5099743;27;52575;-71
2023/05/15 03:02:13;;;;;;;;;49.50;40.75;;;;;-149.00;100.00;66333.84;5081874;27;45814;-72
2023/05/15 03:04:38;;;;;;;;;55.25;46.00;;;;;-149.00;100.00;66333.84;5100363;27;45350;-71
2023/05/15 03:07:03;;;;;;;;;48.25;40.25;;;;;-149.00;100.00;66333.84;5099571;27;50910;-72
2023/05/15 03:09:28;;;;;;;;;52.25;44.00;;;;;-149.00;100.00;66333.84;5099641;27;58785;-72
2023/05/15 03:11:54;;;;;;;;;56.50;45.00;;;;;-149.00;100.00;66333.84;5100035;27;45321;-71
2023/05/15 03:14:19;;;;;;;;;56.25;46.00;;;;;-149.00;100.00;66333.84;5100016;27;45297;-71
2023/05/15 03:16:44;;;;;;;;;53.75;43.00;;;;;-149.00;100.00;66333.84;5100835;27;55934;-71
2023/05/15 03:19:10;;;;;;;;;53.75;44.00;;;;;-149.00;100.00;66333.84;5103622;27;45358;-72
2023/05/15 03:21:35;;;;;;;;;55.25;45.50;;;;;-149.00;100.00;66333.84;5103469;27;45325;-71
2023/05/15 03:24:00;;;;;;;;;49.25;42.25;;;;;-149.00;100.00;66333.84;5103528;27;48272;-72
2023/05/15 03:26:26;;;;;;;;;51.25;42.00;;;;;-149.00;100.00;66333.84;5103327;27;52808;-71
2023/05/15 03:28:52;;;;;;;;;53.75;44.25;;;;;-149.00;100.00;66333.84;5103155;27;45937;-72
2023/05/15 03:31:17;;;;;;;;;56.00;44.25;;;;;-149.00;100.00;66333.84;5085057;27;45197;-72
2023/05/15 03:33:44;;;;;;;;;53.75;42.50;;;;;-149.00;100.00;66333.84;5103627;27;45330;-71
2023/05/15 03:36:10;;;;;;;;;52.25;42.00;;;;;-149.00;100.00;66333.84;5084746;27;47243;-72
2023/05/15 03:38:35;;;;;;;;;52.25;42.25;;;;;-149.00;100.00;66333.84;5103201;27;45337;-71
2023/05/15 03:41:01;;;;;;;;;56.25;46.25;;;;;-149.00;100.00;66333.84;5103331;27;48598;-71
2023/05/15 03:43:26;;;;;;;;;53.50;44.00;;;;;-149.00;100.00;66333.84;5102798;27;45317;-72
2023/05/15 03:45:51;;;;;;;;;57.25;47.25;;;;;-149.00;100.00;66333.84;5103144;27;45293;-72
2023/05/15 03:48:16;;;;;;;;;59.25;46.50;;;;;-149.00;100.00;66333.84;5102914;27;56917;-72
2023/05/15 03:50:44;;;;;;;;;53.00;44.25;;;;;-149.00;100.00;66333.84;5102975;27;45350;-71
2023/05/15 03:53:09;;;;;;;;;55.50;46.00;;;;;-149.00;100.00;66333.84;5084689;27;45354;-72
2023/05/15 03:55:35;;;;;;;;;54.50;44.75;;;;;-149.00;100.00;66333.84;5084537;27;45364;-71
2023/05/15 03:58:01;;;;;;;;;54.75;44.25;;;;;-149.00;100.00;66333.84;5103073;27;45291;-72
2023/05/15 04:00:26;;;;;;;;;56.00;45.50;;;;;-149.00;100.00;66333.84;5084328;27;45300;-72
2023/05/15 04:02:51;;;;;;;;;59.00;48.00;;;;;-149.00;100.00;66333.84;5084698;27;45240;-72
2023/05/15 04:05:18;;;;;;;;;53.75;44.50;;;;;-149.00;100.00;66333.84;5102798;27;47518;-72
2023/05/15 04:07:43;;;;;;;;;56.25;45.25;;;;;-149.00;100.00;66333.84;5102896;27;45402;-72
2023/05/15 04:10:09;;;;;;;;;51.25;42.75;;;;;-149.00;100.00;66333.84;5084283;27;46007;-72
2023/05/15 04:12:35;;;;;;;;;53.75;42.75;;;;;-149.00;100.00;66333.84;5103053;27;45324;-72
2023/05/15 04:15:21;;;;;;;;;56.25;46.00;;;;;-149.00;100.00;66333.84;5102661;27;45444;-72
2023/05/15 04:17:48;;;;;;;;;52.00;42.00;;;;;-149.00;100.00;66333.84;5102618;27;46228;-71
2023/05/15 04:20:16;;;;;;;;;54.75;44.50;;;;;-149.00;100.00;66333.84;5102542;27;45353;-71
2023/05/15 04:22:43;;;;;;;;;49.75;40.75;;;;;-149.00;100.00;66333.84;5102509;27;45227;-72
2023/05/15 04:25:10;;;;;;;;;53.00;41.75;;;;;-149.00;100.00;66333.84;5102588;27;45307;-71
2023/05/15 04:27:36;;;;;;;;;55.33;44.00;;;;;-149.00;100.00;66333.84;5083256;27;47091;-71
2023/05/15 04:30:02;;;;;;;;;55.25;44.50;;;;;-149.00;100.00;66333.84;5101522;27;45367;-71
2023/05/15 04:32:28;;;;;;;;;52.50;44.00;;;;;-149.00;100.00;66333.84;5084113;27;45262;-72
2023/05/15 04:34:54;;;;;;;;;56.25;45.75;;;;;-149.00;100.00;66333.84;5102256;27;45527;-71
2023/05/15 04:37:19;;;;;;;;;51.50;42.00;;;;;-149.00;100.00;66333.84;5083612;27;47429;-72
2023/05/15 04:39:44;;;;;;;;;58.25;45.75;;;;;-149.00;100.00;66333.84;5083775;27;45359;-71
2023/05/15 04:42:10;;;;;;;;;52.50;43.00;;;;;-149.00;100.00;66333.84;5102287;27;50008;-72
2023/05/15 04:44:35;;;;;;;;;52.00;41.50;;;;;-149.00;100.00;66333.84;5083673;27;46108;-72
2023/05/15 04:47:01;;;;;;;;;61.00;47.00;;;;;-149.00;100.00;66333.84;5102221;27;46101;-71
2023/05/15 04:49:26;;;;;;;;;52.00;44.00;;;;;-149.00;100.00;66333.84;5102186;27;48551;-71
2023/05/15 04:51:51;;;;;;;;;54.25;45.00;;;;;-149.00;100.00;66333.84;5083540;27;49404;-71
2023/05/15 04:54:16;;;;;;;;;61.00;47.75;;;;;-149.00;100.00;66333.84;5102125;27;45207;-72
2023/05/15 04:56:42;;;;;;;;;59.00;46.25;;;;;-149.00;100.00;66333.84;5101608;27;60207;-71
2023/05/15 04:59:08;;;;;;;;;51.50;42.75;;;;;-149.00;100.00;66333.84;5102035;27;45477;-72
2023/05/15 05:01:33;;;;;;;;;51.50;42.25;;;;;-149.00;100.00;66333.84;5102219;27;45406;-71
2023/05/15 05:03:59;;;;;;;;;54.75;44.25;;;;;-149.00;100.00;66333.84;5101619;27;49597;-72
2023/05/15 05:06:24;;;;;;;;;55.50;45.25;;;;;-149.00;100.00;66333.84;5101874;27;45318;-71
2023/05/15 05:08:49;;;;;;;;;50.33;41.00;;;;;-149.00;100.00;66333.84;5093003;27;45437;-71
2023/05/15 05:11:15;;;;;;;;;54.00;44.50;;;;;-149.00;100.00;66333.84;5092332;27;49413;-72
2023/05/15 05:13:41;;;;;;;;;52.00;41.00;;;;;-149.00;100.00;66333.84;5088298;27;54522;-72
2023/05/15 05:16:06;;;;;;;;;49.33;41.00;;;;;-149.00;100.00;66333.84;5101787;27;46575;-72
2023/05/15 05:18:32;;;;;;;;;51.00;42.00;;;;;-149.00;100.00;66333.84;5083083;27;45392;-72
2023/05/15 05:21:00;;;;;;;;;56.50;45.00;;;;;-149.00;100.00;66333.84;5101784;27;45509;-72
2023/05/15 05:23:25;;;;;;;;;54.67;44.00;;;;;-149.00;100.00;66333.84;5082750;27;46274;-72
2023/05/15 05:25:50;;;;;;;;;50.75;41.50;;;;;-149.00;100.00;66333.84;5082130;27;57396;-72
2023/05/15 05:28:15;;;;;;;;;54.50;44.25;;;;;-149.00;100.00;66333.84;5099583;27;48968;-71
2023/05/15 05:30:44;;;;;;;;;49.50;40.75;;;;;-149.00;100.00;66333.84;5100898;27;45834;-71
2023/05/15 05:33:09;;;;;;;;;51.50;42.00;;;;;-149.00;100.00;66333.84;5101371;27;45930;-71
2023/05/15 05:35:35;;;;;;;;;56.75;46.25;;;;;-149.00;100.00;66333.84;5100565;27;59347;-71
2023/05/15 05:38:00;;;;;;;;;57.25;45.75;;;;;-149.00;100.00;66333.84;5101546;27;45320;-71
2023/05/15 05:40:25;;;;;;;;;55.50;44.25;;;;;-149.00;100.00;66333.84;5100654;27;45243;-71
2023/05/15 05:42:51;;;;;;;;;54.75;43.50;;;;;-149.00;100.00;66333.84;5101206;27;51437;-72
2023/05/15 05:45:16;;;;;;;;;51.75;42.75;;;;;-149.00;100.00;66333.84;5100806;27;45397;-71
2023/05/15 05:47:42;;;;;;;;;56.75;45.00;;;;;-149.00;100.00;66333.84;5082360;27;49334;-72
2023/05/15 05:50:07;;;;;;;;;59.25;48.00;;;;;-149.00;100.00;66333.84;5100794;27;45349;-72
2023/05/15 05:52:32;;;;;;;;;57.50;44.50;;;;;-149.00;100.00;66333.84;5080037;27;47245;-71
2023/05/15 05:54:58;;;;;;;;;58.50;46.25;;;;;-149.00;100.00;66333.84;5100540;27;46234;-72
2023/05/15 05:57:23;;;;;;;;;50.00;42.00;;;;;-149.00;100.00;66333.84;5098643;27;49455;-71
2023/05/15 05:59:48;;;;;;;;;53.75;43.50;;;;;-149.00;100.00;66333.84;5100596;27;45333;-71
2023/05/15 06:02:14;;;;;;;;;54.50;44.25;;;;;-149.00;100.00;66333.84;5100977;27;45356;-71
2023/05/15 06:04:40;;;;;;;;;57.50;47.00;;;;;-149.00;100.00;66333.84;5101046;27;46336;-71
2023/05/15 06:07:05;;;;;;;;;57.50;46.75;;;;;-149.00;100.00;66333.84;5082546;27;45339;-71
2023/05/15 06:09:30;;;;;;;;;57.75;46.00;;;;;-149.00;100.00;66333.84;5101169;27;45343;-71
2023/05/15 06:11:56;;;;;;;;;55.75;45.25;;;;;-149.00;100.00;66333.84;5100976;27;45226;-72
2023/05/15 06:14:22;;;;;;;;;51.50;41.00;;;;;-149.00;100.00;66333.84;5100539;27;45630;-71
2023/05/15 06:16:47;;;;;;;;;57.25;46.50;;;;;-149.00;100.00;66333.84;5100906;27;45299;-72
2023/05/15 06:19:12;;;;;;;;;56.25;45.00;;;;;-149.00;100.00;66333.84;5100774;27;45444;-71
2023/05/15 06:21:38;;;;;;;;;56.25;45.00;;;;;-149.00;100.00;66333.84;5100705;27;45575;-71
2023/05/15 06:24:03;;;;;;;;;57.75;46.00;;;;;-149.00;100.00;66333.84;5100292;27;58639;-71
2023/05/15 06:26:29;;;;;;;;;56.00;44.75;;;;;-149.00;100.00;66333.84;5082295;27;45734;-71
2023/05/15 06:28:54;;;;;;;;;55.25;43.25;;;;;-149.00;100.00;66333.84;5100524;27;45251;-70
2023/05/15 06:31:20;;;;;;;;;55.25;45.50;;;;;-149.00;100.00;66333.84;5100475;27;45239;-71
2023/05/15 06:33:45;;;;;;;;;56.50;43.25;;;;;-149.00;100.00;66333.84;5099682;27;46077;-71
2023/05/15 06:36:11;;;;;;;;;46.00;38.75;;;;;-149.00;100.00;66333.84;5100407;27;45374;-72
2023/05/15 06:38:36;;;;;;;;;57.50;45.75;;;;;-149.00;100.00;66333.84;5082025;27;45476;-72
2023/05/15 06:41:01;;;;;;;;;62.00;48.00;;;;;-149.00;100.00;66333.84;5099009;27;45556;-72
2023/05/15 06:43:27;;;;;;;;;57.00;47.25;;;;;-149.00;100.00;66333.84;5099980;27;46193;-72
2023/05/15 06:45:52;;;;;;;;;53.25;44.50;;;;;-149.00;100.00;66333.84;5100424;27;45267;-72
2023/05/15 06:48:17;;;;;;;;;52.50;43.75;;;;;-149.00;100.00;66333.84;5100610;27;45359;-73
2023/05/15 06:50:42;;;;;;;;;55.00;45.50;;;;;-149.00;100.00;66333.84;5099337;27;45289;-72
2023/05/15 06:53:08;;;;;;;;;52.75;43.00;;;;;-149.00;100.00;66333.84;5099560;27;45356;-72
2023/05/15 06:55:35;;;;;;;;;54.25;44.75;;;;;-149.00;100.00;66333.84;5100376;27;45316;-72
2023/05/15 06:58:00;;;;;;;;;55.50;45.50;;;;;-149.00;100.00;66333.84;5100454;27;45266;-72
2023/05/15 07:00:26;;;;;;;;;55.50;45.00;;;;;-149.00;100.00;66333.84;5099957;27;45293;-72
2023/05/15 07:02:51;;;;;;;;;54.25;44.75;;;;;-149.00;100.00;66333.84;5100047;27;45262;-72
2023/05/15 07:05:17;;;;;;;;;53.00;44.25;;;;;-149.00;100.00;66333.84;5099982;27;45291;-72
2023/05/15 07:07:42;;;;;;;;;57.25;46.25;;;;;-149.00;100.00;66333.84;5100305;27;45482;-73
2023/05/15 07:10:08;;;;;;;;;54.00;44.00;;;;;-149.00;100.00;66333.84;5081397;27;46426;-72
2023/05/15 07:12:33;;;;;;;;;54.50;44.75;;;;;-149.00;100.00;66333.84;5081448;27;47193;-72
2023/05/15 07:14:58;;;;;;;;;51.00;42.67;;;;;-149.00;100.00;66333.84;5099834;27;47638;-72
2023/05/15 07:17:24;;;;;;;;;48.33;39.67;;;;;-149.00;100.00;66333.84;5100121;27;45444;-72
2023/05/15 07:19:49;;;;;;;;;47.67;37.33;;;;;-149.00;100.00;66333.84;5100094;27;45333;-72
2023/05/15 07:22:15;;;;;;;;;46.33;37.67;;;;;-149.00;100.00;66333.84;5099342;27;57769;-72
2023/05/15 07:24:40;;;;;;;;;48.00;39.00;;;;;-149.00;100.00;66333.84;5099797;27;49104;-72
2023/05/15 07:27:05;;;;;;;;;41.00;35.33;;;;;-149.00;100.00;66333.84;5100075;27;45247;-72
2023/05/15 07:29:30;;;;;;;;;51.67;41.67;;;;;-149.00;100.00;66333.84;5099555;27;45329;-72
2023/05/15 07:31:56;;;;;;;;;42.33;36.00;;;;;-149.00;100.00;66333.84;5099884;27;45298;-72
2023/05/15 07:34:22;;;;;;;;;49.00;40.33;;;;;-149.00;100.00;66333.84;5099517;27;46794;-72
2023/05/15 07:36:47;;;;;;;;;47.67;39.00;;;;;-149.00;100.00;66333.84;5099962;27;45318;-72
2023/05/15 07:39:12;;;;;;;;;43.33;38.00;;;;;-149.00;100.00;66333.84;5099389;27;45321;-73
2023/05/15 07:41:38;;;;;;;;;44.33;36.67;;;;;-149.00;100.00;66333.84;5099358;27;57285;-72
2023/05/15 07:44:03;;;;;;;;;39.00;33.67;;;;;-149.00;100.00;66333.84;5099526;27;47417;-72
2023/05/15 07:46:28;;;;;;;;;42.00;36.00;;;;;-149.00;100.00;66333.84;5099866;27;45480;-72
2023/05/15 07:48:54;;;;;;;;;48.67;39.00;;;;;-149.00;100.00;66333.84;5081031;27;46334;-72
2023/05/15 07:51:19;;;;;;;;;49.00;41.67;;;;;-149.00;100.00;66333.84;5080303;27;63279;-71
2023/05/15 07:53:44;;;;;;;;;41.33;34.67;;;;;-149.00;100.00;66333.84;5099521;27;45384;-72
2023/05/15 07:56:10;;;;;;;;;40.00;34.33;;;;;-149.00;100.00;66333.84;5099438;27;48521;-73
2023/05/15 07:58:37;;;;;;;;;46.33;38.67;;;;;-149.00;100.00;66333.84;5099405;27;45251;-72
2023/05/15 08:01:02;;;;;;;;;44.00;36.33;;;;;-149.00;100.00;66333.84;5099520;27;45928;-72
2023/05/15 08:03:28;;;;;;;;;50.33;42.67;;;;;-149.00;100.00;66333.84;5083043;27;45298;-71
2023/05/15 08:05:53;;;;;;;;;39.67;34.67;;;;;-149.00;100.00;66333.84;5084760;27;45193;-72
2023/05/15 08:08:18;;;;;;;;;44.67;37.33;;;;;-149.00;100.00;66333.84;5102999;27;45340;-73
2023/05/15 08:10:43;;;;;;;;;44.00;34.00;;;;;-149.00;100.00;66333.84;5102438;27;56942;-72
2023/05/15 08:13:09;;;;;;;;;41.33;33.00;;;;;-149.00;100.00;66333.84;5102745;27;45344;-72
2023/05/15 08:15:34;;;;;;;;;42.00;36.67;;;;;-149.00;100.00;66333.84;5084424;27;45333;-72
2023/05/15 08:18:00;;;;;;;;;44.33;36.67;;;;;-149.00;100.00;66333.84;5102816;27;45363;-72
2023/05/15 08:20:25;;;;;;;;;44.00;37.00;;;;;-149.00;100.00;66333.84;5102678;27;45234;-72
2023/05/15 08:22:51;;;;;;;;;44.33;37.67;;;;;-149.00;100.00;66333.84;5102242;27;49928;-72
2023/05/15 08:25:16;;;;;;;;;42.33;35.00;;;;;-149.00;100.00;66333.84;5084314;27;48151;-73
2023/05/15 08:27:41;;;;;;;;;44.00;37.00;;;;;-149.00;100.00;66333.84;5102609;27;45385;-71
2023/05/15 08:30:07;;;;;;;;;46.67;37.33;;;;;-149.00;100.00;66333.84;5102053;27;46083;-72
2023/05/15 08:32:32;;;;;;;;;42.33;34.33;;;;;-149.00;100.00;66333.84;5084031;27;45351;-72
2023/05/15 08:34:58;;;;;;;;;49.67;41.00;;;;;-149.00;100.00;66333.84;5084171;27;45336;-72
2023/05/15 08:37:23;;;;;;;;;47.00;38.33;;;;;-149.00;100.00;66333.84;5083886;27;47597;-72
2023/05/15 08:39:48;;;;;;;;;48.00;40.00;;;;;-149.00;100.00;66333.84;5102253;27;46013;-72
2023/05/15 08:42:23;;;;;;;;;48.00;38.33;;;;;-149.00;100.00;66333.84;5102205;27;45745;-72
2023/05/15 08:44:49;;;;;;;;;46.33;37.33;;;;;-149.00;100.00;66333.84;5102416;27;45267;-72
2023/05/15 08:47:14;;;;;;;;;49.33;40.00;;;;;-149.00;100.00;66333.84;5102181;27;45326;-72
2023/05/15 08:49:54;;;;;;;;;51.00;41.67;;;;;-149.00;100.00;66333.84;5102229;27;46090;-72
2023/05/15 08:52:20;;;;;;;;;54.00;43.67;;;;;-149.00;100.00;66333.84;5102231;27;45381;-72
2023/05/15 08:54:47;;;;;;;;;49.33;39.67;;;;;-149.00;100.00;66333.84;5102363;27;45531;-71
2023/05/15 08:57:13;;;;;;;;;51.67;41.67;;;;;-149.00;100.00;66333.84;5102143;27;45349;-72
2023/05/15 08:59:39;;;;;;;;;51.33;42.00;;;;;-149.00;100.00;66333.84;5101758;27;46621;-72
2023/05/15 09:02:05;;;;;;;;;51.00;41.00;;;;;-149.00;100.00;66333.84;5102052;27;45237;-72
2023/05/15 09:04:30;;;;;;;;;53.33;43.67;;;;;-149.00;100.00;66333.84;5102235;27;45338;-72
2023/05/15 09:06:59;;;;;;;;;52.00;42.00;;;;;-149.00;100.00;66333.84;5083576;27;45949;-72
2023/05/15 09:09:26;;;;;;;;;55.00;44.33;;;;;-149.00;100.00;66333.84;5083364;27;47393;-72
2023/05/15 09:11:52;;;;;;;;;57.00;44.75;;;;;-149.00;100.00;66333.84;5101789;27;45397;-72
2023/05/15 09:14:18;;;;;;;;;53.50;43.50;;;;;-149.00;100.00;66333.84;5082310;27;45417;-72
2023/05/15 09:16:45;;;;;;;;;54.33;42.33;;;;;-149.00;100.00;66333.84;5083242;27;45822;-72
2023/05/15 09:19:12;;;;;;;;;59.00;47.00;;;;;-149.00;100.00;66333.84;5101880;27;45413;-72
2023/05/15 09:21:38;;;;;;;;;56.00;45.25;;;;;-149.00;100.00;66333.84;5083191;27;45282;-72
2023/05/15 09:24:25;;;;;;;;;51.00;41.67;;;;;-149.00;100.00;66333.84;5101784;27;45448;-72
2023/05/15 09:27:05;;;;;;;;;53.00;42.33;;;;;-149.00;100.00;66333.84;5101542;27;45304;-72
2023/05/15 09:29:32;;;;;;;;;50.00;41.67;;;;;-149.00;100.00;66333.84;5100776;27;45349;-72
2023/05/15 09:32:11;;;;;;;;;45.00;37.33;;;;;-149.00;100.00;66333.84;5101054;27;45376;-73
2023/05/15 09:34:38;;;;;;;;;48.67;39.67;;;;;-149.00;100.00;66333.84;5081630;27;45398;-73
2023/05/15 09:37:07;;;;;;;;;54.67;43.00;;;;;-149.00;100.00;66333.84;5100901;27;45491;-72
2023/05/15 09:39:33;;;;;;;;;47.00;38.67;;;;;-149.00;100.00;66333.84;5082695;27;48223;-73
2023/05/15 09:42:09;;;;;;;;;49.67;40.67;;;;;-149.00;100.00;66333.84;5101437;27;45149;-73
2023/05/15 09:44:35;;;;;;;;;45.00;38.00;;;;;-149.00;100.00;66333.84;5100592;27;45335;-74
2023/05/15 09:47:01;;;;;;;;;45.67;37.67;;;;;-149.00;100.00;66333.84;5100068;27;45379;-72
2023/05/15 09:49:30;;;;;;;;;47.00;38.00;;;;;-149.00;100.00;66333.84;5101070;27;45472;-72
2023/05/15 09:51:59;;;;;;;;;50.67;42.67;;;;;-149.00;100.00;66333.84;5082764;27;45282;-72
2023/05/15 09:54:29;;;;;;;;;47.67;39.33;;;;;-149.00;100.00;66333.84;5101334;27;45254;-72
2023/05/15 09:56:54;;;;;;;;;52.33;42.67;;;;;-149.00;100.00;66333.84;5100900;27;45315;-72
2023/05/15 09:59:23;;;;;;;;;47.00;38.67;;;;;-149.00;100.00;66333.84;5100701;27;46404;-72
2023/05/15 10:01:50;;;;;;;;;47.67;39.33;;;;;-149.00;100.00;66333.84;5100950;27;45516;-72
2023/05/15 10:04:16;;;;;;;;;48.00;40.00;;;;;-149.00;100.00;66333.84;5082678;27;45253;-72
2023/05/15 10:06:44;;;;;;;;;47.33;39.00;;;;;-149.00;100.00;66333.84;5100850;27;45233;-72
2023/05/15 10:09:11;;;;;;;;;48.00;38.00;;;;;-149.00;100.00;66333.84;5100534;27;45450;-74
2023/05/15 10:11:38;;;;;;;;;46.33;38.33;;;;;-149.00;100.00;66333.84;5099566;27;45861;-73
2023/05/15 10:14:06;;;;;;;;;49.00;39.00;;;;;-149.00;100.00;66333.84;5100764;27;45326;-73
2023/05/15 10:16:34;;;;;;;;;45.00;37.00;;;;;-149.00;100.00;66333.84;5100781;27;45414;-73
2023/05/15 10:19:02;;;;;;;;;48.00;40.00;;;;;-149.00;100.00;66333.84;5100657;27;45310;-73
2023/05/15 10:21:29;;;;;;;;;45.00;37.67;;;;;-149.00;100.00;66333.84;5100460;27;46430;-73
2023/05/15 10:23:59;;;;;;;;;48.00;40.00;;;;;-149.00;100.00;66333.84;5082323;27;45398;-73
2023/05/15 10:26:32;;;;;;;;;44.33;36.00;;;;;-149.00;100.00;66333.84;5100450;27;45443;-74
2023/05/15 10:28:59;;;;;;;;;47.00;39.00;;;;;-149.00;100.00;66333.84;5100207;27;45382;-74
2023/05/15 10:31:25;;;;;;;;;43.00;36.67;;;;;-149.00;100.00;66333.84;5100441;27;45300;-73
2023/05/15 10:33:53;;;;;;;;;42.00;36.33;;;;;-149.00;100.00;66333.84;5082088;27;45396;-73
2023/05/15 10:36:18;;;;;;;;;44.00;38.00;;;;;-149.00;100.00;66333.84;5100157;27;45436;-72
2023/05/15 10:38:45;;;;;;;;;39.67;33.67;;;;;-149.00;100.00;66333.84;5100149;27;45874;-72
2023/05/15 10:41:12;;;;;;;;;41.67;34.00;;;;;-149.00;100.00;66333.84;5100300;27;45260;-72
2023/05/15 10:43:40;;;;;;;;;43.67;35.67;;;;;-149.00;100.00;66333.84;5100167;27;45338;-72
2023/05/15 10:46:07;;;;;;;;;37.33;33.00;;;;;-149.00;100.00;66333.84;5081804;27;46237;-73
2023/05/15 10:48:34;;;;;;;;;42.33;36.00;;;;;-149.00;100.00;66333.84;5100274;27;45457;-73
2023/05/15 10:51:00;;;;;;;;;42.33;36.00;;;;;-149.00;100.00;66333.84;5100204;27;45329;-72
2023/05/15 10:53:26;;;;;;;;;41.33;34.33;;;;;-149.00;100.00;66333.84;5100376;27;45499;-72